• Join FlightAware (Why Join?)
  • Login
  • US Flag 
05:51AM EDT


 

Airport Tracker/Info


-or-


 

Live Flight TrackerFlight Track Log ✈ AWE3208 ✈ 27-Aug-2013 ✈ KPHL - KSYR

Flight Track Log - Related Links

Times and Time Zones

All times are in EDT time to prevent confusion due to time zone crossing. See the AWE3208 flight status page for this flight to view local times or setup timezone preferences in your user account.

Time Position Orientation Groundspeed Altitude Reporting Facility
EDT Latitude Longitude Course Direction KTS MPH feet Rate Location/Type
09:38PM 39.8667 -75.2833 311° West 159 183 1,000  Level Philadelphia TRACON
09:39PM 39.8500 -75.3500 252° West 234 269 4,100 3,060 Climbing Philadelphia TRACON
09:40PM 40.0886 -75.4386 323° Northwest  Level FlightAware Approximate
09:40PM 39.8333 -75.4333 255° West 227 261 7,800  Level Philadelphia TRACON
09:41PM 40.1627 -75.5126 323° Northwest  Level FlightAware Approximate
09:41PM 39.9167 -75.4667 343° North 286 329 10,600  Level Philadelphia TRACON
09:42PM 40.2362 -75.5792 311° West  Level FlightAware Approximate
09:42PM 39.9897 -75.4933 344° North 346 398 11,800  Level New York Center
09:43PM 40.2975 -75.6712 311° West  Level FlightAware Approximate
09:43PM 40.0639 -75.5147 348° North 377 434 13,000  Level New York Center
09:44PM 40.1753 -75.5494 347° North 370 426 14,000 1,440 Climbing New York Center
09:45PM 40.2539 -75.6092 330° Northwest 370 426 15,900 960 Climbing New York Center
09:46PM 40.3228 -75.7119 311° West 370 426 16,000  Climbing New York Center
09:47PM 40.4078 -75.8189 316° Northwest 381 438 16,000  Level New York Center
09:48PM 40.5008 -75.8831 332° Northwest 381 438 16,000  Level New York Center
09:49PM 40.5981 -75.9506 332° Northwest 386 444 16,000  Level New York Center
09:50PM 40.6931 -76.0153 333° Northwest 386 444 16,000  Level New York Center
09:51PM 40.7881 -76.0800 333° Northwest 380 437 16,000  Level New York Center
09:52PM 40.8731 -76.1389 332° Northwest 380 437 16,000  Level New York Center
09:53PM 40.9681 -76.2039 333° Northwest 380 437 16,000  Level New York Center
09:54PM 41.0736 -76.2181 354° North 369 425 16,000  Level New York Center
09:55PM 41.1822 -76.2103 North 378 435 16,000  Level New York Center
09:56PM 41.2992 -76.2031 North 383 441 16,000  Level New York Center
09:57PM 41.4081 -76.1953 North 388 447 16,000  Level New York Center
09:58PM 41.5144 -76.1872 North 388 447 16,000  Level New York Center
09:59PM 41.6108 -76.1783 North 388 447 16,000  Level New York Center
10:00PM 41.7172 -76.1703 North 388 447 16,000  Level New York Center
10:01PM 41.8364 -76.1633 North 388 447 16,000  Level New York Center
10:02PM 41.9428 -76.1553 North 388 447 16,000  Level New York Center
10:03PM 42.0283 -76.1511 North 388 447 16,000  Level New York Center
10:04PM 42.1478 -76.1383 North 388 447 16,000  Level New York Center
10:05PM 42.2544 -76.1275 North 388 447 16,000 -540 Level New York Center
10:06PM 42.3736 -76.1119 North 388 447 15,000 -1,500 Descending New York Center
10:07PM 42.4850 -76.1033 North 371 427 12,800 -1,920 Descending Boston Center
10:08PM 42.5919 -76.0869 North 358 412 11,000 -1,140 Descending Boston Center
10:09PM 42.6842 -76.0756 North 332 382 10,500 -1,080 Descending Boston Center
10:10PM 42.7661 -76.0550 10° North 275 316 8,900 -1,980 Descending Boston Center
10:11PM 42.8417 -76.0394 North 271 312 6,600 -2,340 Descending Boston Center
10:12PM 42.9128 -76.0267 North 269 310 4,300 -1,560 Descending Boston Center
10:13PM 42.9806 -75.9964 18° North 240 276 3,500 -600 Descending Boston Center
10:14PM 43.0353 -75.9769 15° North 210 242 3,200 -840 Descending Boston Center
10:15PM 43.0867 -76.0056 338° Northwest 219 252 2,000 -1,200 Descending Boston Center
10:16PM 43.1119 -76.0583 303° West 156 180 1,000 -1,080 Descending Boston Center